createdAt,value
2023-02-09T00:27:16.378Z,6.74
2023-02-09T00:29:47.993Z,6.89
2023-02-09T00:32:20.063Z,6.99
2023-02-09T00:34:47.823Z,7.04
2023-02-09T00:37:15.879Z,6.82
2023-02-09T00:39:46.223Z,6.87
2023-02-09T00:42:16.136Z,6.88
2023-02-09T00:44:43.881Z,6.89
2023-02-09T00:47:15.443Z,6.87
2023-02-09T00:49:43.511Z,6.87
2023-02-09T00:52:11.183Z,6.92
2023-02-09T00:54:39.658Z,6.99
2023-02-09T00:57:07.427Z,7.02
2023-02-09T00:59:38.434Z,7.04
2023-02-09T01:02:06.327Z,7.02
2023-02-09T01:04:35.291Z,6.95
2023-02-09T01:07:03.103Z,7.03
2023-02-09T01:09:32.278Z,6.89
2023-02-09T01:12:02.191Z,6.82
2023-02-09T01:14:32.759Z,6.82
2023-02-09T01:17:00.612Z,6.82
2023-02-09T01:19:29.398Z,6.74
2023-02-09T01:21:57.141Z,6.71
2023-02-09T01:24:24.690Z,6.75
2023-02-09T01:26:56.989Z,6.75
2023-02-09T01:29:25.658Z,6.74
2023-02-09T01:31:55.976Z,6.71
2023-02-09T01:34:24.254Z,6.70
2023-02-09T01:36:52.123Z,6.71
2023-02-09T01:39:20.973Z,6.78
2023-02-09T01:41:50.020Z,6.96
2023-02-09T01:44:22.895Z,6.94
2023-02-09T01:46:54.040Z,6.75
2023-02-09T01:49:25.925Z,6.66
2023-02-09T01:52:02.956Z,6.64
2023-02-09T01:54:55.390Z,6.66
2023-02-09T01:57:49.889Z,6.63
2023-02-09T02:00:19.743Z,6.60
2023-02-09T02:02:51.732Z,6.77
2023-02-09T02:05:20.063Z,6.73
2023-02-09T02:08:25.942Z,6.66
2023-02-09T02:10:57.184Z,6.62
2023-02-09T02:13:25.359Z,6.72
2023-02-09T02:16:15.142Z,6.70
2023-02-09T02:18:47.398Z,6.71
2023-02-09T02:21:55.326Z,6.69
2023-02-09T02:24:47.836Z,6.66
2023-02-09T02:27:44.997Z,6.62
2023-02-09T02:30:32.054Z,6.54
2023-02-09T02:33:37.255Z,6.64
2023-02-09T02:37:01.292Z,6.79
2023-02-09T02:39:55.116Z,6.97
2023-02-09T02:42:51.459Z,6.81
2023-02-09T02:45:51.709Z,6.80
2023-02-09T02:48:19.560Z,6.75
2023-02-09T02:51:08.341Z,6.75
2023-02-09T02:53:41.592Z,6.77
2023-02-09T02:56:22.161Z,6.81
2023-02-09T02:58:52.474Z,7.11
2023-02-09T03:01:22.644Z,7.30
2023-02-09T03:03:51.915Z,7.25
2023-02-09T03:06:20.177Z,7.14
2023-02-09T03:08:58.280Z,7.01
2023-02-09T03:11:31.679Z,6.98
2023-02-09T03:14:11.956Z,7.10
2023-02-09T03:16:48.323Z,7.10
2023-02-09T03:19:52.484Z,7.14
2023-02-09T03:22:37.591Z,7.22
2023-02-09T03:25:26.364Z,7.31
2023-02-09T03:28:17.102Z,7.25
2023-02-09T03:30:46.378Z,7.39
2023-02-09T03:33:21.064Z,7.61
2023-02-09T03:35:52.625Z,7.61
2023-02-09T03:38:23.057Z,7.64
2023-02-09T03:40:51.022Z,7.77
2023-02-09T03:43:20.944Z,7.75
2023-02-09T03:45:49.029Z,7.73
2023-02-09T03:48:16.882Z,7.82
2023-02-09T03:50:44.946Z,7.70
2023-02-09T03:53:14.524Z,7.68
2023-02-09T03:55:42.741Z,7.68
2023-02-09T03:58:10.804Z,7.59
2023-02-09T04:00:39.780Z,7.54
2023-02-09T04:03:07.690Z,7.50
2023-02-09T04:05:38.220Z,7.56
2023-02-09T04:08:07.499Z,7.44
2023-02-09T04:10:36.684Z,7.42
2023-02-09T04:13:04.650Z,7.43
2023-02-09T04:15:32.739Z,7.46
2023-02-09T04:18:02.385Z,7.41
2023-02-09T04:20:30.229Z,7.43
2023-02-09T04:22:57.969Z,7.47
2023-02-09T04:25:27.258Z,7.47
2023-02-09T04:27:55.114Z,7.53
2023-02-09T04:30:23.217Z,7.55
2023-02-09T04:32:52.110Z,7.67
2023-02-09T04:35:20.068Z,7.64
2023-02-09T04:37:49.268Z,7.66
2023-02-09T04:40:20.619Z,7.72
2023-02-09T04:42:52.685Z,7.71
2023-02-09T04:45:20.581Z,7.66
2023-02-09T04:47:49.033Z,7.67
2023-02-09T04:50:17.930Z,7.68
2023-02-09T04:52:45.888Z,7.78
2023-02-09T04:55:20.043Z,7.62
2023-02-09T04:58:11.534Z,7.46
2023-02-09T05:00:39.736Z,7.56
2023-02-09T05:03:07.606Z,7.61
2023-02-09T05:05:40.082Z,7.66
2023-02-09T05:08:08.333Z,7.77
2023-02-09T05:10:36.380Z,7.90
2023-02-09T05:13:05.940Z,7.90
2023-02-09T05:15:34.806Z,7.93
2023-02-09T05:18:04.584Z,7.75
2023-02-09T05:20:34.405Z,7.91
2023-02-09T05:23:07.494Z,7.88
2023-02-09T05:25:36.989Z,8.06
2023-02-09T05:28:12.663Z,8.01
2023-02-09T05:30:44.464Z,8.11
2023-02-09T05:33:13.806Z,8.07
2023-02-09T05:35:41.808Z,7.91
2023-02-09T05:38:12.108Z,7.99
2023-02-09T05:40:41.249Z,8.15
2023-02-09T05:43:10.267Z,7.88
2023-02-09T05:45:39.062Z,7.87
2023-02-09T05:48:10.056Z,7.84
2023-02-09T05:50:39.859Z,7.91
2023-02-09T05:53:09.672Z,7.87
2023-02-09T05:55:39.694Z,7.92
2023-02-09T05:58:08.956Z,7.90
2023-02-09T06:00:38.869Z,8.01
2023-02-09T06:03:08.202Z,8.03
2023-02-09T06:05:40.986Z,7.86
2023-02-09T06:08:09.963Z,7.71
2023-02-09T06:10:38.330Z,7.69
2023-02-09T06:13:07.550Z,7.89
2023-02-09T06:15:38.203Z,7.94
2023-02-09T06:18:08.898Z,8.01
2023-02-09T06:20:36.747Z,7.94
2023-02-09T06:23:05.135Z,7.91
2023-02-09T06:25:33.436Z,7.84
2023-02-09T06:28:04.336Z,7.65
2023-02-09T06:30:33.082Z,7.70
2023-02-09T06:33:01.877Z,7.67
2023-02-09T06:35:31.174Z,7.76
2023-02-09T06:38:00.011Z,7.63
2023-02-09T06:40:28.432Z,7.61
2023-02-09T06:42:57.180Z,7.57
2023-02-09T06:45:25.190Z,7.68
2023-02-09T06:47:53.533Z,7.70
2023-02-09T06:50:21.417Z,7.44
2023-02-09T06:52:50.000Z,7.49
2023-02-09T06:55:19.194Z,7.53
2023-02-09T06:57:46.960Z,7.53
2023-02-09T07:00:15.239Z,7.52
2023-02-09T07:02:44.530Z,7.48
2023-02-09T07:05:13.421Z,7.43
2023-02-09T07:07:41.384Z,7.46
2023-02-09T07:10:10.109Z,7.44
2023-02-09T07:12:40.752Z,7.39
2023-02-09T07:15:08.998Z,7.52
2023-02-09T07:17:39.882Z,7.50
2023-02-09T07:20:09.546Z,7.49
2023-02-09T07:22:38.949Z,7.27
2023-02-09T07:25:07.752Z,7.42
2023-02-09T07:27:36.002Z,7.41
2023-02-09T07:30:04.698Z,7.33
2023-02-09T07:32:34.150Z,7.23
2023-02-09T07:35:02.463Z,7.33
2023-02-09T07:37:30.421Z,7.31
2023-02-09T07:39:59.183Z,7.30
2023-02-09T07:42:27.276Z,7.11
2023-02-09T07:45:01.417Z,7.06
2023-02-09T07:47:29.681Z,6.93
2023-02-09T07:49:58.203Z,6.99
2023-02-09T07:52:26.602Z,6.89
2023-02-09T07:54:54.001Z,6.94
2023-02-09T07:57:21.617Z,6.95
2023-02-09T07:59:50.277Z,6.92
2023-02-09T08:02:24.864Z,6.86
2023-02-09T08:04:53.333Z,6.86
2023-02-09T08:07:22.143Z,6.64
2023-02-09T08:09:51.421Z,6.59
2023-02-09T08:12:42.342Z,6.48
2023-02-09T08:15:13.065Z,6.55
2023-02-09T08:17:41.871Z,6.69
2023-02-09T08:20:17.664Z,6.70
2023-02-09T08:22:49.004Z,6.45
2023-02-09T08:25:19.567Z,6.73
2023-02-09T08:27:47.868Z,6.41
2023-02-09T08:30:20.086Z,6.42
2023-02-09T08:32:51.273Z,6.57
2023-02-09T08:35:20.168Z,6.49
2023-02-09T08:37:52.331Z,6.44
2023-02-09T08:40:20.639Z,6.55
2023-02-09T08:42:50.181Z,6.43
2023-02-09T08:45:18.948Z,6.38
2023-02-09T08:47:48.105Z,6.51
2023-02-09T08:50:19.885Z,6.22
2023-02-09T08:52:48.706Z,6.27
2023-02-09T08:55:18.268Z,6.07
2023-02-09T08:57:46.957Z,5.87
2023-02-09T09:00:23.747Z,6.01
2023-02-09T09:02:55.067Z,5.86
2023-02-09T09:05:24.448Z,5.97
2023-02-09T09:07:53.367Z,5.51
2023-02-09T09:10:24.728Z,5.63
2023-02-09T09:12:54.518Z,5.63
2023-02-09T09:15:24.039Z,5.66
2023-02-09T09:17:54.284Z,5.48
2023-02-09T09:20:22.920Z,5.53
2023-02-09T09:22:50.881Z,5.43
2023-02-09T09:25:19.957Z,5.28
2023-02-09T09:27:49.429Z,5.28
2023-02-09T09:30:17.144Z,5.25
2023-02-09T09:32:46.552Z,5.16
2023-02-09T09:35:14.888Z,5.09
2023-02-09T09:37:45.812Z,5.03
2023-02-09T09:40:27.704Z,4.99
2023-02-09T09:43:00.802Z,4.99
2023-02-09T09:45:29.998Z,5.13
2023-02-09T09:47:58.146Z,4.99
2023-02-09T09:50:30.571Z,4.99
2023-02-09T09:53:05.010Z,4.95
2023-02-09T09:55:32.940Z,4.86
2023-02-09T09:58:03.250Z,4.83
2023-02-09T10:00:41.442Z,4.90
2023-02-09T10:03:14.043Z,4.83
2023-02-09T10:05:42.451Z,4.72
2023-02-09T10:08:10.687Z,4.60
2023-02-09T10:11:01.625Z,4.58
2023-02-09T10:14:03.942Z,4.52
2023-02-09T10:16:40.144Z,4.64
2023-02-09T10:19:22.108Z,4.75
2023-02-09T10:21:51.157Z,4.60
2023-02-09T10:24:39.657Z,4.52
2023-02-09T10:27:26.310Z,4.75
2023-02-09T10:29:56.517Z,4.51
2023-02-09T10:32:29.168Z,4.42
2023-02-09T10:34:57.468Z,4.51
2023-02-09T10:37:37.789Z,4.32
2023-02-09T10:40:21.876Z,4.40
2023-02-09T10:43:02.924Z,4.55
2023-02-09T10:45:47.637Z,4.32
2023-02-09T10:48:19.459Z,4.46
2023-02-09T10:50:58.060Z,4.53
2023-02-09T10:53:32.253Z,4.25
2023-02-09T10:56:21.333Z,4.07
2023-02-09T10:59:00.896Z,3.99
2023-02-09T11:01:32.628Z,3.75
2023-02-09T11:04:01.446Z,3.85
2023-02-09T11:06:33.917Z,4.10
2023-02-09T11:09:16.400Z,4.07
2023-02-09T11:11:44.837Z,3.97
2023-02-09T11:14:14.330Z,3.98
2023-02-09T11:16:44.043Z,4.06
2023-02-09T11:19:22.243Z,3.93
2023-02-09T11:22:15.801Z,3.84
2023-02-09T11:24:58.542Z,3.87
2023-02-09T11:31:51.515Z,3.71
2023-02-09T11:34:37.274Z,3.55
2023-02-09T11:37:44.642Z,3.51
2023-02-09T11:40:26.530Z,3.42
2023-02-09T11:43:08.383Z,3.35
2023-02-09T11:45:43.455Z,3.24
2023-02-09T11:48:18.433Z,3.44
2023-02-09T11:51:08.675Z,3.40
2023-02-09T11:53:37.564Z,3.49
2023-02-09T11:56:07.738Z,3.42
2023-02-09T11:58:47.167Z,3.29
2023-02-09T12:01:35.059Z,3.34
2023-02-09T12:04:26.188Z,3.17
2023-02-09T12:06:57.106Z,3.19
2023-02-09T12:09:45.945Z,3.21
2023-02-09T12:12:29.314Z,3.18
2023-02-09T12:15:21.026Z,3.29
2023-02-09T12:17:57.860Z,3.25
2023-02-09T12:20:37.272Z,3.12
2023-02-09T12:23:11.443Z,3.22
2023-02-09T12:25:51.559Z,3.12
2023-02-09T12:28:25.676Z,3.19
2023-02-09T12:30:58.329Z,3.11
2023-02-09T12:33:26.664Z,3.00
2023-02-09T12:36:10.901Z,3.18
2023-02-09T12:38:55.934Z,3.18
2023-02-09T12:41:41.101Z,3.25
2023-02-09T12:44:10.922Z,3.18
2023-02-09T12:46:53.063Z,3.32
2023-02-09T12:49:33.490Z,3.23
2023-02-09T12:52:02.041Z,3.41
2023-02-09T12:55:00.323Z,3.30
2023-02-09T12:58:06.718Z,3.43
2023-02-09T13:00:40.532Z,3.65
2023-02-09T13:03:12.891Z,3.43
2023-02-09T13:05:41.588Z,3.40
2023-02-09T13:08:19.553Z,3.25
2023-02-09T13:11:13.631Z,3.27
2023-02-09T13:13:56.564Z,3.48
2023-02-09T13:16:24.199Z,3.34
2023-02-09T13:19:12.696Z,3.33
2023-02-09T13:22:01.704Z,3.17
2023-02-09T13:24:39.046Z,3.10
2023-02-09T13:27:18.899Z,3.12
2023-02-09T13:29:51.636Z,3.12
2023-02-09T13:32:51.299Z,3.05
2023-02-09T13:35:23.860Z,3.01
2023-02-09T13:37:58.148Z,3.10
2023-02-09T13:40:30.908Z,3.12
2023-02-09T13:43:11.585Z,3.18
2023-02-09T13:45:48.748Z,3.21
2023-02-09T13:48:31.251Z,3.02
2023-02-09T13:51:04.059Z,3.05
2023-02-09T13:53:33.776Z,2.95
2023-02-09T13:56:02.499Z,2.97
2023-02-09T13:58:35.342Z,3.00
2023-02-09T14:01:08.126Z,3.19
2023-02-09T14:03:46.929Z,3.12
2023-02-09T14:06:27.739Z,3.10
2023-02-09T14:08:58.960Z,3.16
2023-02-09T14:11:41.603Z,3.20
2023-02-09T14:14:53.219Z,3.31
2023-02-09T14:17:25.827Z,3.42
2023-02-09T14:19:55.907Z,3.27
2023-02-09T14:22:29.243Z,3.23
2023-02-09T14:24:58.676Z,3.44
2023-02-09T14:27:27.601Z,3.70
2023-02-09T14:29:55.747Z,3.76
2023-02-09T14:32:37.483Z,3.67
2023-02-09T14:35:23.150Z,3.83
2023-02-09T14:37:52.020Z,3.73
2023-02-09T14:40:29.502Z,3.68
2023-02-09T14:43:00.534Z,3.72
2023-02-09T14:45:39.142Z,3.86
2023-02-09T14:48:29.514Z,3.73
2023-02-09T14:51:01.633Z,3.73
2023-02-09T14:53:31.009Z,3.78
2023-02-09T14:55:59.203Z,3.77
2023-02-09T14:58:31.459Z,3.84
2023-02-09T15:01:00.448Z,4.13
2023-02-09T15:03:28.182Z,4.01
2023-02-09T15:06:00.789Z,3.97
2023-02-09T15:08:30.638Z,4.24
2023-02-09T15:11:24.165Z,4.01
2023-02-09T15:13:54.790Z,4.02
2023-02-09T15:16:22.468Z,4.19
2023-02-09T15:18:50.062Z,4.34
2023-02-09T15:21:18.343Z,4.22
2023-02-09T15:23:45.952Z,4.15
2023-02-09T15:26:16.501Z,4.26
2023-02-09T15:28:45.107Z,4.39
2023-02-09T15:31:16.394Z,4.36
2023-02-09T15:33:45.519Z,4.40
2023-02-09T15:36:16.621Z,4.29
2023-02-09T15:38:45.300Z,4.38
2023-02-09T15:41:34.399Z,4.44
2023-02-09T15:44:38.074Z,4.45
2023-02-09T15:47:24.309Z,4.53
2023-02-09T15:49:51.854Z,4.53
2023-02-09T15:52:19.266Z,4.47
2023-02-09T15:54:47.112Z,4.60
2023-02-09T15:57:15.604Z,4.67
2023-02-09T15:59:43.275Z,4.68
2023-02-09T16:02:12.946Z,4.87
2023-02-09T16:04:41.387Z,4.79
2023-02-09T16:07:12.332Z,4.83
2023-02-09T16:09:41.268Z,4.86
2023-02-09T16:12:11.374Z,4.91
2023-02-09T16:14:40.177Z,4.91
2023-02-09T16:17:08.026Z,4.93
2023-02-09T16:19:36.760Z,5.03
2023-02-09T16:22:06.133Z,5.05
2023-02-09T16:24:41.777Z,5.10
2023-02-09T16:27:28.241Z,5.19
2023-02-09T16:29:57.201Z,5.23
2023-02-09T16:32:28.857Z,5.33
2023-02-09T16:35:07.415Z,5.28
2023-02-09T16:37:44.949Z,5.42
2023-02-09T16:40:17.402Z,5.45
2023-02-09T16:42:47.703Z,5.38
2023-02-09T16:45:16.316Z,5.54
2023-02-09T16:47:49.079Z,5.55
2023-02-09T16:50:33.958Z,5.48
2023-02-09T16:53:03.478Z,5.48
2023-02-09T16:55:33.470Z,5.58
2023-02-09T16:58:03.299Z,5.55
2023-02-09T17:00:33.285Z,5.60
2023-02-09T17:03:13.871Z,5.73
2023-02-09T17:05:44.146Z,5.58
2023-02-09T17:08:27.078Z,5.55
2023-02-09T17:10:55.948Z,5.62
2023-02-09T17:13:23.903Z,5.83
2023-02-09T17:15:53.349Z,5.80
2023-02-09T17:18:26.280Z,5.78
2023-02-09T17:20:55.920Z,5.92
2023-02-09T17:23:25.047Z,5.76
2023-02-09T17:25:54.870Z,5.85
2023-02-09T17:28:26.073Z,5.88
2023-02-09T17:30:57.198Z,5.90
2023-02-09T17:33:30.370Z,5.87
2023-02-09T17:36:25.111Z,5.89
2023-02-09T17:38:49.089Z,5.75
2023-02-09T17:41:34.028Z,5.77
2023-02-09T17:44:22.223Z,5.92
2023-02-09T17:46:54.418Z,5.80
2023-02-09T17:49:22.882Z,5.81
2023-02-09T17:51:51.237Z,5.83
2023-02-09T17:54:19.764Z,5.90
2023-02-09T17:56:47.141Z,5.87
2023-02-09T17:59:19.343Z,6.08
2023-02-09T18:01:49.269Z,5.77
2023-02-09T18:04:28.297Z,6.00
2023-02-09T18:06:58.088Z,5.91
2023-02-09T18:09:26.016Z,6.07
2023-02-09T18:12:01.201Z,5.98
2023-02-09T18:14:31.611Z,5.97
2023-02-09T18:17:01.149Z,6.09
2023-02-09T18:19:29.035Z,5.99
2023-02-09T18:22:02.471Z,6.06
2023-02-09T18:24:32.118Z,6.01
2023-02-09T18:27:00.236Z,5.90
2023-02-09T18:29:31.199Z,5.86
2023-02-09T18:31:59.614Z,5.90
2023-02-09T18:34:28.000Z,5.80
2023-02-09T18:36:57.500Z,5.75
2023-02-09T18:39:25.070Z,5.76
2023-02-09T18:41:55.754Z,5.58
2023-02-09T18:44:28.141Z,5.65
2023-02-09T18:46:56.491Z,5.58
2023-02-09T18:49:24.502Z,5.65
2023-02-09T18:51:51.980Z,5.71
2023-02-09T18:54:22.161Z,5.67
2023-02-09T18:56:55.529Z,5.75
2023-02-09T18:59:30.448Z,5.87
2023-02-09T19:02:05.034Z,5.90
2023-02-09T19:04:32.476Z,5.81
2023-02-09T19:07:09.022Z,5.88
2023-02-09T19:09:40.014Z,5.87
2023-02-09T19:12:14.347Z,5.79
2023-02-09T19:14:45.764Z,5.77
2023-02-09T19:17:16.317Z,5.79
2023-02-09T19:19:55.999Z,5.82
2023-02-09T19:22:28.103Z,5.78
2023-02-09T19:25:00.292Z,5.87
2023-02-09T19:27:29.838Z,5.87
2023-02-09T19:29:59.802Z,5.76
2023-02-09T19:32:27.543Z,5.74
2023-02-09T19:35:00.009Z,5.84
2023-02-09T19:37:27.287Z,5.84
2023-02-09T19:40:10.299Z,5.84
2023-02-09T19:42:43.483Z,5.89
2023-02-09T19:45:18.237Z,5.92
2023-02-09T19:47:45.485Z,5.96
2023-02-09T19:50:15.057Z,5.90
2023-02-09T19:52:45.328Z,5.88
2023-02-09T19:55:13.350Z,5.91
2023-02-09T19:57:42.238Z,5.90
2023-02-09T20:00:14.513Z,6.04
2023-02-09T20:02:42.789Z,6.07
2023-02-09T20:05:10.497Z,6.13
2023-02-09T20:07:38.800Z,6.16
2023-02-09T20:10:08.821Z,6.09
2023-02-09T20:12:39.626Z,6.15
2023-02-09T20:15:15.069Z,6.24
2023-02-09T20:17:44.217Z,6.15
2023-02-09T20:20:15.901Z,6.14
2023-02-09T20:22:48.229Z,6.23
2023-02-09T20:25:15.873Z,6.34
2023-02-09T20:27:44.430Z,6.26
2023-02-09T20:30:13.041Z,6.21
2023-02-09T20:32:42.281Z,6.22
2023-02-09T20:35:11.263Z,6.28
2023-02-09T20:37:38.880Z,6.32
2023-02-09T20:40:11.230Z,6.32
2023-02-09T20:42:59.074Z,6.15
2023-02-09T20:45:46.161Z,6.16
2023-02-09T20:48:14.315Z,6.17
2023-02-09T20:50:45.057Z,6.17
2023-02-09T20:53:13.414Z,6.10
2023-02-09T20:55:41.553Z,6.15
2023-02-09T20:58:11.764Z,6.20
2023-02-09T21:00:40.938Z,6.24
2023-02-09T21:03:10.234Z,6.12
2023-02-09T21:05:37.854Z,6.24
2023-02-09T21:08:07.428Z,6.29
2023-02-09T21:10:38.047Z,6.31
2023-02-09T21:13:08.989Z,6.43
2023-02-09T21:15:41.298Z,6.40
2023-02-09T21:18:08.939Z,6.38
2023-02-09T21:20:36.722Z,6.37
2023-02-09T21:23:05.528Z,6.31
2023-02-09T21:25:35.428Z,6.39
2023-02-09T21:28:03.911Z,6.36
2023-02-09T21:30:31.381Z,6.35
2023-02-09T21:33:01.848Z,6.33
2023-02-09T21:35:29.506Z,6.29
2023-02-09T21:37:56.877Z,6.33
2023-02-09T21:40:25.496Z,6.37
2023-02-09T21:42:52.828Z,6.35
2023-02-09T21:45:20.535Z,6.54
2023-02-09T21:47:48.293Z,6.63
2023-02-09T21:50:15.866Z,6.55
2023-02-09T21:52:43.501Z,6.64
2023-02-09T21:55:11.635Z,6.82
2023-02-09T21:57:39.424Z,6.78
2023-02-09T22:00:08.902Z,6.63
2023-02-09T22:02:36.609Z,6.80
2023-02-09T22:05:04.326Z,6.66
2023-02-09T22:07:32.611Z,7.05
2023-02-09T22:10:01.851Z,7.12
2023-02-09T22:12:29.566Z,7.12
2023-02-09T22:14:57.142Z,7.18
2023-02-09T22:17:25.732Z,7.09
2023-02-09T22:19:53.333Z,6.83
2023-02-09T22:22:21.024Z,6.80
2023-02-09T22:24:49.646Z,6.81
2023-02-09T22:27:22.294Z,6.81
2023-02-09T22:29:51.177Z,6.68
2023-02-09T22:32:20.184Z,6.61
2023-02-09T22:34:49.201Z,6.54
2023-02-09T22:37:16.557Z,6.58
2023-02-09T22:39:45.319Z,6.48
2023-02-09T22:42:14.042Z,6.66
2023-02-09T22:44:41.937Z,6.65
2023-02-09T22:47:09.428Z,6.70
2023-02-09T22:49:39.201Z,6.79
2023-02-09T22:52:07.611Z,6.73
2023-02-09T22:54:36.628Z,6.89
2023-02-09T22:57:05.294Z,6.79
2023-02-09T22:59:36.220Z,6.85
2023-02-09T23:02:04.652Z,6.65
2023-02-09T23:04:32.979Z,6.69
2023-02-09T23:07:00.709Z,6.85
2023-02-09T23:09:28.373Z,6.76
2023-02-09T23:11:55.635Z,6.83
2023-02-09T23:14:23.168Z,6.88
2023-02-09T23:16:50.586Z,6.75
2023-02-09T23:19:20.154Z,6.71
2023-02-09T23:21:49.213Z,6.76
2023-02-09T23:24:21.141Z,6.67
2023-02-09T23:26:48.991Z,6.77
2023-02-09T23:29:17.219Z,6.87
2023-02-09T23:31:45.862Z,6.86
2023-02-09T23:34:14.916Z,6.85
2023-02-09T23:36:42.802Z,6.89
2023-02-09T23:39:13.277Z,6.94
2023-02-09T23:41:41.261Z,6.73
2023-02-09T23:44:09.107Z,6.74
2023-02-09T23:46:36.793Z,6.93
2023-02-09T23:49:04.346Z,7.02
2023-02-09T23:51:35.462Z,6.82
2023-02-09T23:54:04.976Z,6.83
2023-02-09T23:56:37.429Z,6.83
2023-02-09T23:59:06.994Z,6.83
